Time;durP1;ratioP1;P1;durP2;ratioP2;P2;SDS_P1;SDS_P2;PMS_P1;PMS_P2;Temp;Humidity;BMP_temperature;BMP_pressure;BME280_temperature;BME280_humidity;BME280_pressure;Samples;Min_cycle;Max_cycle;Signal;HPM_P1;HPM_P2
2022/06/16 00:00:38;;;;;;;1999.90;999.90;;;20.70;99.90;;;;;;5015607;28;20915;-72
2022/06/16 00:03:06;;;;;;;1999.90;999.90;;;20.70;99.90;;;;;;5016149;28;20807;-72
2022/06/16 00:05:35;;;;;;;1999.90;999.90;;;20.70;99.90;;;;;;5015314;28;20454;-72
2022/06/16 00:08:06;;;;;;;1999.90;999.90;;;20.70;99.90;;;;;;5017124;28;20400;-72
2022/06/16 00:10:32;;;;;;;1999.90;999.90;;;20.70;99.90;;;;;;5015742;28;20908;-72
2022/06/16 00:12:58;;;;;;;1999.90;999.90;;;20.70;99.90;;;;;;5015594;28;20897;-72
2022/06/16 00:15:27;;;;;;;1999.90;999.90;;;20.70;99.90;;;;;;5016750;28;20424;-72
2022/06/16 00:17:54;;;;;;;1999.90;999.90;;;20.60;99.90;;;;;;4998967;28;20199;-72
2022/06/16 00:20:20;;;;;;;1999.90;999.90;;;20.60;99.90;;;;;;5016969;28;20445;-72
2022/06/16 00:22:46;;;;;;;1999.90;999.90;;;20.60;99.90;;;;;;5016614;28;20468;-72
2022/06/16 00:25:12;;;;;;;1999.90;999.90;;;20.50;99.90;;;;;;5015326;28;20439;-72
2022/06/16 00:27:38;;;;;;;1999.90;999.90;;;20.40;99.90;;;;;;5017370;28;20438;-72
2022/06/16 00:30:06;;;;;;;1999.90;999.90;;;20.30;99.90;;;;;;5016165;28;20983;-72
2022/06/16 00:32:31;;;;;;;1999.90;999.90;;;20.30;99.90;;;;;;5017420;28;20418;-72
2022/06/16 00:34:57;;;;;;;1999.90;999.90;;;20.30;99.90;;;;;;5015993;28;20425;-72
2022/06/16 00:37:23;;;;;;;1999.90;999.90;;;20.30;99.90;;;;;;5014231;28;20313;-72
2022/06/16 00:39:49;;;;;;;1999.90;999.90;;;20.20;99.90;;;;;;5016655;28;20177;-72
2022/06/16 00:42:21;;;;;;;1999.90;999.90;;;20.20;99.90;;;;;;5016788;28;20388;-72
2022/06/16 00:44:52;;;;;;;1999.90;999.90;;;20.10;99.90;;;;;;5017054;28;20213;-72
2022/06/16 00:47:24;;;;;;;1999.90;999.90;;;20.10;99.90;;;;;;5014692;28;20410;-71
2022/06/16 00:49:52;;;;;;;1999.90;999.90;;;20.10;99.90;;;;;;5014929;28;20398;-72
2022/06/16 00:52:25;;;;;;;1999.90;999.90;;;20.10;99.90;;;;;;5015782;28;20482;-72
2022/06/16 00:54:59;;;;;;;1999.90;999.90;;;20.10;99.90;;;;;;5016346;28;20823;-72
2022/06/16 00:57:37;;;;;;;1999.90;999.90;;;20.10;99.90;;;;;;5016155;28;20839;-72
2022/06/16 01:00:21;;;;;;;1999.90;999.90;;;20.00;99.90;;;;;;5017534;28;20439;-72
2022/06/16 01:02:47;;;;;;;1999.90;999.90;;;20.00;99.90;;;;;;5015288;28;20394;-72
2022/06/16 01:05:13;;;;;;;1999.90;999.90;;;19.90;99.90;;;;;;5016952;28;21012;-72
2022/06/16 01:07:42;;;;;;;1999.90;999.90;;;19.90;99.90;;;;;;5016163;28;20198;-72
2022/06/16 01:10:09;;;;;;;1999.90;999.90;;;19.90;99.90;;;;;;5015264;28;20420;-72
2022/06/16 01:15:55;;;;;;;1999.90;999.90;;;19.90;99.90;;;;;;5017460;28;20403;-72
2022/06/16 01:18:52;;;;;;;1999.90;999.90;;;20.00;99.90;;;;;;5015788;28;20426;-72
2022/06/16 01:21:29;;;;;;;1999.90;999.90;;;19.90;99.90;;;;;;5015414;28;20414;-72
2022/06/16 01:24:14;;;;;;;1999.90;999.90;;;19.90;99.90;;;;;;5016318;28;20444;-72
2022/06/16 01:26:58;;;;;;;1999.90;999.90;;;19.90;99.90;;;;;;5015892;28;20580;-72
2022/06/16 01:29:53;;;;;;;1999.90;999.90;;;19.90;99.90;;;;;;5016237;28;20404;-71
2022/06/16 01:32:26;;;;;;;1999.90;999.90;;;19.90;99.90;;;;;;5016560;28;20419;-72
2022/06/16 01:35:11;;;;;;;1999.90;999.90;;;19.80;99.90;;;;;;5016160;28;20412;-72
2022/06/16 01:37:54;;;;;;;1999.90;999.90;;;19.80;99.90;;;;;;5021376;23;20546;-72
2022/06/16 01:40:35;;;;;;;1999.90;999.90;;;19.70;99.90;;;;;;4973267;28;20410;-72
2022/06/16 01:43:05;;;;;;;1999.90;999.90;;;19.70;99.90;;;;;;4973112;28;20898;-72
2022/06/16 01:45:53;;;;;;;1999.90;999.90;;;19.70;99.90;;;;;;4973055;28;20449;-72
2022/06/16 01:48:20;;;;;;;1999.90;999.90;;;19.60;99.90;;;;;;4972932;28;20404;-71
2022/06/16 01:50:54;;;;;;;1999.90;999.90;;;19.60;99.90;;;;;;4973312;28;20394;-72
2022/06/16 01:53:41;;;;;;;1999.90;999.90;;;19.60;99.90;;;;;;4973184;28;20429;-72
2022/06/16 01:56:53;;;;;;;1999.90;999.90;;;19.60;99.90;;;;;;4973027;28;20458;-71
2022/06/16 01:59:25;;;;;;;1999.90;999.90;;;19.60;99.90;;;;;;4967705;28;20426;-72
2022/06/16 02:01:59;;;;;;;1999.90;999.90;;;19.50;99.90;;;;;;4976671;28;20402;-72
2022/06/16 02:04:53;;;;;;;1999.90;999.90;;;19.40;99.90;;;;;;4976792;28;20445;-72
2022/06/16 02:07:31;;;;;;;1999.90;999.90;;;19.40;99.90;;;;;;4976221;28;20405;-72
2022/06/16 02:10:01;;;;;;;1999.90;999.90;;;19.30;99.90;;;;;;4976532;28;20415;-72
2022/06/16 02:15:31;;;;;;;1999.90;999.90;;;19.20;99.90;;;;;;4976418;28;20940;-72
2022/06/16 02:17:58;;;;;;;1999.90;999.90;;;19.10;99.90;;;;;;4975993;28;20420;-72
2022/06/16 02:20:29;;;;;;;1999.90;999.90;;;19.10;99.90;;;;;;4976176;28;20428;-71
2022/06/16 02:22:57;;;;;;;1999.90;999.90;;;19.00;99.90;;;;;;4975951;28;20409;-72
2022/06/16 02:25:23;;;;;;;1999.90;999.90;;;19.00;99.90;;;;;;4976021;28;20452;-72
2022/06/16 02:27:49;;;;;;;1999.90;999.90;;;18.90;99.90;;;;;;4975657;28;21005;-72
2022/06/16 02:30:15;;;;;;;1999.90;999.90;;;18.90;99.90;;;;;;4976035;28;20169;-72
2022/06/16 02:32:59;;;;;;;1999.90;999.90;;;18.90;99.90;;;;;;4975902;28;20177;-72
2022/06/16 02:35:42;;;;;;;1999.90;999.90;;;18.80;99.90;;;;;;4975875;28;20415;-72
2022/06/16 02:38:42;;;;;;;1999.90;999.90;;;18.80;99.90;;;;;;4975465;28;21015;-72
2022/06/16 02:41:13;;;;;;;1999.90;999.90;;;18.80;99.90;;;;;;4909606;28;20420;-72
2022/06/16 02:43:51;;;;;;;1999.90;999.90;;;18.80;99.90;;;;;;4975615;28;20474;-72
2022/06/16 02:46:39;;;;;;;1999.90;999.90;;;18.70;99.90;;;;;;4975379;28;20471;-72
2022/06/16 02:49:23;;;;;;;1999.90;999.90;;;18.70;99.90;;;;;;4975462;28;20406;-71
2022/06/16 02:51:51;;;;;;;1999.90;999.90;;;18.60;99.90;;;;;;4975419;28;20405;-71
2022/06/16 02:54:55;;;;;;;1999.90;999.90;;;18.60;99.90;;;;;;4975391;28;20905;-72
2022/06/16 02:57:44;;;;;;;1999.90;999.90;;;18.50;99.90;;;;;;4942968;28;20439;-71
2022/06/16 03:00:16;;;;;;;1999.90;999.90;;;18.40;99.90;;;;;;4975361;28;20411;-72
2022/06/16 03:02:42;;;;;;;1999.90;999.90;;;18.20;99.90;;;;;;4975405;28;20444;-72
2022/06/16 03:05:11;;;;;;;1999.90;999.90;;;18.20;99.90;;;;;;4975151;28;20456;-72
2022/06/16 03:07:38;;;;;;;1999.90;999.90;;;18.00;99.90;;;;;;4974869;28;20436;-72
2022/06/16 03:10:05;;;;;;;1999.90;999.90;;;18.00;99.90;;;;;;4975230;28;20412;-72
2022/06/16 03:12:31;;;;;;;1999.90;999.90;;;17.90;99.90;;;;;;4974460;28;20823;-72
2022/06/16 03:14:57;;;;;;;1999.90;999.90;;;17.80;99.90;;;;;;4975006;28;20447;-72
2022/06/16 03:17:23;;;;;;;1999.90;999.90;;;17.80;99.90;;;;;;4974783;28;20814;-72
2022/06/16 03:19:48;;;;;;;1999.90;999.90;;;17.70;99.90;;;;;;4974938;28;20588;-72
2022/06/16 03:22:14;;;;;;;1999.90;999.90;;;17.50;99.90;;;;;;4975002;28;20178;-73
2022/06/16 03:24:40;;;;;;;1999.90;999.90;;;17.40;99.90;;;;;;4974822;28;20227;-72
2022/06/16 03:27:06;;;;;;;1999.90;999.90;;;17.30;99.90;;;;;;4974536;28;20170;-72
2022/06/16 03:29:32;;;;;;;1999.90;999.90;;;17.30;99.90;;;;;;4974882;28;20170;-72
2022/06/16 03:31:58;;;;;;;1999.90;999.90;;;17.20;99.90;;;;;;4974755;28;20416;-72
2022/06/16 03:34:24;;;;;;;1999.90;999.90;;;17.10;99.90;;;;;;4974983;28;20428;-72
2022/06/16 03:36:51;;;;;;;1999.90;999.90;;;17.10;99.90;;;;;;4974480;28;20225;-71
2022/06/16 03:39:17;;;;;;;1999.90;999.90;;;17.10;99.90;;;;;;4974661;28;20475;-72
2022/06/16 03:41:42;;;;;;;1999.90;999.90;;;17.10;99.90;;;;;;4974806;28;20413;-71
2022/06/16 03:44:08;;;;;;;1999.90;999.90;;;17.00;99.90;;;;;;4974802;28;20448;-72
2022/06/16 03:46:34;;;;;;;1999.90;999.90;;;16.80;99.90;;;;;;4974413;28;20182;-72
2022/06/16 03:48:59;;;;;;;1999.90;999.90;;;16.60;99.90;;;;;;4974493;28;20194;-72
2022/06/16 03:51:25;;;;;;;1999.90;999.90;;;16.50;99.90;;;;;;4974851;28;20185;-71
2022/06/16 03:53:51;;;;;;;1999.90;999.90;;;16.40;99.90;;;;;;4974583;28;20167;-72
2022/06/16 03:56:16;;;;;;;1999.90;999.90;;;16.40;99.90;;;;;;4974229;28;20246;-71
2022/06/16 03:58:42;;;;;;;1999.90;999.90;;;16.40;99.90;;;;;;4974406;28;20201;-72
2022/06/16 04:01:08;;;;;;;1999.90;999.90;;;16.50;99.90;;;;;;4974474;28;20657;-71
2022/06/16 04:06:19;;;;;;;1999.90;999.90;;;16.60;99.90;;;;;;4974365;28;20403;-72
2022/06/16 04:08:45;;;;;;;1999.90;999.90;;;16.60;99.90;;;;;;4974277;28;20959;-72
2022/06/16 04:11:29;;;;;;;1999.90;999.90;;;16.50;99.90;;;;;;4974279;28;20680;-72
2022/06/16 04:14:00;;;;;;;1999.90;999.90;;;16.50;99.90;;;;;;4974269;28;20776;-72
2022/06/16 04:16:27;;;;;;;1999.90;999.90;;;16.40;99.90;;;;;;4972860;28;20993;-72
2022/06/16 04:18:53;;;;;;;1999.90;999.90;;;16.30;99.90;;;;;;4974349;28;20494;-72
2022/06/16 04:21:19;;;;;;;1999.90;999.90;;;16.20;99.90;;;;;;4974216;28;20507;-72
2022/06/16 04:23:44;;;;;;;1999.90;999.90;;;16.20;99.90;;;;;;4974017;28;20167;-71
2022/06/16 04:26:10;;;;;;;1999.90;999.90;;;16.10;99.90;;;;;;4973737;28;20174;-71
2022/06/16 04:28:36;;;;;;;1999.90;999.90;;;16.10;99.90;;;;;;4974027;28;20596;-72
2022/06/16 04:31:01;;;;;;;1999.90;999.90;;;16.00;99.90;;;;;;4973879;28;20173;-71
2022/06/16 04:33:28;;;;;;;1999.90;999.90;;;16.10;99.90;;;;;;4973675;28;20174;-72
2022/06/16 04:35:54;;;;;;;1999.90;999.90;;;16.00;99.90;;;;;;4973778;28;20258;-72
2022/06/16 04:38:20;;;;;;;1999.90;999.90;;;16.00;99.90;;;;;;4973579;28;20557;-72
2022/06/16 04:40:45;;;;;;;1999.90;999.90;;;16.00;99.90;;;;;;4973664;28;20504;-72
2022/06/16 04:43:14;;;;;;;1999.90;999.90;;;16.00;99.90;;;;;;4973838;28;20252;-72
2022/06/16 04:45:41;;;;;;;1999.90;999.90;;;16.00;99.90;;;;;;4973683;28;20293;-72
2022/06/16 04:48:07;;;;;;;1999.90;999.90;;;16.10;99.90;;;;;;4973667;28;20432;-72
2022/06/16 04:50:34;;;;;;;1999.90;999.90;;;16.20;99.90;;;;;;4973651;28;20408;-72
2022/06/16 04:52:59;;;;;;;1999.90;999.90;;;16.20;99.90;;;;;;4973701;28;20835;-72
2022/06/16 04:55:25;;;;;;;1999.90;999.90;;;16.20;99.90;;;;;;4973612;28;20439;-72
2022/06/16 04:57:51;;;;;;;1999.90;999.90;;;16.20;99.90;;;;;;4973279;28;20226;-72
2022/06/16 05:00:17;;;;;;;1999.90;999.90;;;16.20;99.90;;;;;;4973486;28;20410;-71
2022/06/16 05:02:43;;;;;;;1999.90;999.90;;;16.20;99.90;;;;;;4973525;28;20834;-71
2022/06/16 05:05:09;;;;;;;1999.90;999.90;;;16.20;99.90;;;;;;4973598;28;20453;-71
2022/06/16 05:07:34;;;;;;;1999.90;999.90;;;16.30;99.90;;;;;;4973340;28;20321;-72
2022/06/16 05:10:00;;;;;;;1999.90;999.90;;;16.30;99.90;;;;;;4973494;28;20225;-72
2022/06/16 05:12:26;;;;;;;1999.90;999.90;;;16.30;99.90;;;;;;4973380;28;20169;-72
2022/06/16 05:14:52;;;;;;;1999.90;999.90;;;16.20;99.90;;;;;;4973440;28;20177;-71
2022/06/16 05:17:18;;;;;;;1999.90;999.90;;;16.20;99.90;;;;;;4972936;28;20259;-71
2022/06/16 05:19:44;;;;;;;1999.90;999.90;;;16.30;99.90;;;;;;4973469;28;20758;-72
2022/06/16 05:22:09;;;;;;;1999.90;999.90;;;16.40;99.90;;;;;;4973397;28;20422;-72
2022/06/16 05:24:35;;;;;;;1999.90;999.90;;;16.50;99.90;;;;;;4973512;28;20213;-72
2022/06/16 05:27:04;;;;;;;1999.90;999.90;;;16.60;99.90;;;;;;4972965;28;20635;-72
2022/06/16 05:29:31;;;;;;;1999.90;999.90;;;16.70;99.90;;;;;;4973369;28;20534;-72
2022/06/16 05:31:57;;;;;;;1999.90;999.90;;;16.80;99.90;;;;;;4973274;28;20491;-72
2022/06/16 05:34:23;;;;;;;1999.90;999.90;;;16.90;99.90;;;;;;4973367;28;20416;-72
2022/06/16 05:36:48;;;;;;;1999.90;999.90;;;16.90;99.90;;;;;;4976640;28;20408;-72
2022/06/16 05:39:14;;;;;;;1999.90;999.90;;;17.00;99.90;;;;;;4977033;28;20234;-72
2022/06/16 05:41:41;;;;;;;1999.90;999.90;;;17.00;99.90;;;;;;4977111;28;20171;-71
2022/06/16 05:44:08;;;;;;;1999.90;999.90;;;17.00;99.90;;;;;;4976979;28;20169;-72
2022/06/16 05:46:35;;;;;;;1999.90;999.90;;;17.00;99.90;;;;;;4976755;28;20970;-72
2022/06/16 05:49:00;;;;;;;1999.90;999.90;;;17.20;99.90;;;;;;4976906;28;20532;-71
2022/06/16 05:51:26;;;;;;;1999.90;999.90;;;17.40;99.90;;;;;;4976952;28;20494;-71
2022/06/16 05:53:52;;;;;;;1999.90;999.90;;;17.50;99.90;;;;;;4977079;28;20173;-72
2022/06/16 05:56:18;;;;;;;1999.90;999.90;;;17.50;99.90;;;;;;4976610;28;20172;-72
2022/06/16 05:58:43;;;;;;;1999.90;999.90;;;17.60;99.90;;;;;;4976845;28;20180;-71
2022/06/16 06:01:10;;;;;;;1999.90;999.90;;;17.60;99.90;;;;;;4976882;28;20666;-72
2022/06/16 06:03:38;;;;;;;1999.90;999.90;;;17.70;99.90;;;;;;4976759;28;20709;-71
2022/06/16 06:06:04;;;;;;;1999.90;999.90;;;17.70;99.90;;;;;;4976368;28;20529;-72
2022/06/16 06:16:47;;;;;;;1999.90;999.90;;;18.10;99.90;;;;;;4976340;28;20825;-72
2022/06/16 06:19:23;;;;;;;1999.90;999.90;;;18.20;99.90;;;;;;4976401;28;20430;-72
2022/06/16 06:21:58;;;;;;;1999.90;999.90;;;18.40;99.90;;;;;;4976329;28;20196;-71
2022/06/16 06:24:24;;;;;;;1999.90;999.90;;;18.50;99.90;;;;;;4976459;28;20469;-72
2022/06/16 06:26:50;;;;;;;1999.90;999.90;;;18.60;99.90;;;;;;4975868;28;20413;-72
2022/06/16 06:29:15;;;;;;;1999.90;999.90;;;18.70;99.90;;;;;;4976289;28;20517;-72
2022/06/16 06:31:41;;;;;;;1999.90;999.90;;;18.80;99.90;;;;;;4975973;28;20213;-72
2022/06/16 06:34:07;;;;;;;1999.90;999.90;;;18.90;99.90;;;;;;4976118;28;20172;-72
2022/06/16 06:36:32;;;;;;;1999.90;999.90;;;18.80;99.90;;;;;;4975980;28;20659;-72
2022/06/16 06:38:58;;;;;;;1999.90;999.90;;;18.70;99.90;;;;;;4975959;28;20206;-72
2022/06/16 06:41:23;;;;;;;1999.90;999.90;;;18.70;99.90;;;;;;4975816;28;20187;-72
2022/06/16 06:43:49;;;;;;;1999.90;999.90;;;18.90;99.90;;;;;;4975859;28;20643;-72
2022/06/16 06:46:15;;;;;;;1999.90;999.90;;;18.90;99.90;;;;;;4974705;28;20178;-72
2022/06/16 06:48:41;;;;;;;1999.90;999.90;;;18.90;99.90;;;;;;4975250;28;20212;-72
2022/06/16 06:51:07;;;;;;;1999.90;999.90;;;18.90;99.90;;;;;;4975586;28;20176;-72
2022/06/16 06:53:33;;;;;;;1999.90;999.90;;;19.00;99.90;;;;;;4975597;28;20474;-72
2022/06/16 06:55:59;;;;;;;1999.90;999.90;;;19.10;99.90;;;;;;4975211;28;20412;-72
2022/06/16 06:58:25;;;;;;;1999.90;999.90;;;19.20;99.90;;;;;;4975448;28;20232;-72
2022/06/16 07:00:53;;;;;;;1999.90;999.90;;;19.30;99.90;;;;;;4975469;28;20440;-72
2022/06/16 07:03:20;;;;;;;1999.90;999.90;;;19.30;99.90;;;;;;4975582;28;20415;-71
2022/06/16 07:05:46;;;;;;;1999.90;999.90;;;19.40;99.90;;;;;;4975453;28;20452;-72
2022/06/16 07:08:13;;;;;;;1999.90;999.90;;;19.40;99.90;;;;;;4975156;28;20436;-74
2022/06/16 07:10:40;;;;;;;1999.90;999.90;;;19.50;99.90;;;;;;4975431;28;20411;-71
2022/06/16 07:13:06;;;;;;;1999.90;999.90;;;19.60;99.90;;;;;;4975430;28;20464;-71
2022/06/16 07:15:31;;;;;;;1999.90;999.90;;;19.80;99.90;;;;;;4975416;28;20502;-72
2022/06/16 07:17:57;;;;;;;1999.90;999.90;;;19.90;99.90;;;;;;4975173;28;20954;-72
2022/06/16 07:20:23;;;;;;;1999.90;999.90;;;20.00;99.90;;;;;;4974221;28;20555;-72
2022/06/16 07:22:48;;;;;;;1999.90;999.90;;;20.10;99.90;;;;;;4975186;28;20256;-73
2022/06/16 07:25:15;;;;;;;1999.90;999.90;;;20.00;99.90;;;;;;4977678;28;20200;-73
2022/06/16 07:27:41;;;;;;;1999.90;999.90;;;19.90;99.90;;;;;;4975543;28;20182;-71
2022/06/16 07:30:13;;;;;;;1999.90;999.90;;;19.90;99.90;;;;;;4974808;28;20483;-71
2022/06/16 07:32:43;;;;;;;1999.90;999.90;;;19.80;99.90;;;;;;4974813;28;20424;-71
2022/06/16 07:35:10;;;;;;;1999.90;999.90;;;19.80;99.90;;;;;;4974739;28;20938;-71
2022/06/16 07:37:36;;;;;;;1999.90;999.90;;;19.70;99.90;;;;;;4974622;28;20528;-70
2022/06/16 07:40:03;;;;;;;1999.90;999.90;;;19.90;99.90;;;;;;4974612;28;20500;-71
2022/06/16 07:42:28;;;;;;;1999.90;999.90;;;20.00;99.90;;;;;;4974564;28;20260;-71
2022/06/16 07:44:54;;;;;;;1999.90;999.90;;;20.20;99.90;;;;;;4974350;28;20519;-71
2022/06/16 07:47:20;;;;;;;1999.90;999.90;;;20.30;99.90;;;;;;4974086;28;20513;-72
2022/06/16 07:49:49;;;;;;;1999.90;999.90;;;20.40;99.90;;;;;;4974405;28;20169;-71
2022/06/16 07:52:15;;;;;;;1999.90;999.90;;;20.50;99.90;;;;;;4974395;28;20465;-71
2022/06/16 07:54:41;;;;;;;1999.90;999.90;;;20.70;99.90;;;;;;4974500;28;20414;-71
2022/06/16 07:57:07;;;;;;;1999.90;999.90;;;20.60;99.90;;;;;;4973905;28;20415;-71
2022/06/16 07:59:33;;;;;;;1999.90;999.90;;;20.70;99.90;;;;;;4973932;28;20171;-71
2022/06/16 08:01:58;;;;;;;1999.90;999.90;;;20.60;99.90;;;;;;4974244;28;20414;-71
2022/06/16 08:04:24;;;;;;;1999.90;999.90;;;20.70;99.90;;;;;;4973917;28;20445;-71
2022/06/16 08:06:50;;;;;;;1999.90;999.90;;;20.60;99.90;;;;;;4973709;28;20167;-72
2022/06/16 08:09:16;;;;;;;1999.90;999.90;;;20.50;99.90;;;;;;4971592;28;20431;-74
2022/06/16 08:14:26;;;;;;;1999.90;999.90;;;20.40;99.90;;;;;;4972912;28;20385;-72
2022/06/16 08:16:52;;;;;;;1999.90;999.90;;;20.40;99.90;;;;;;4972800;28;20783;-72
2022/06/16 08:19:17;;;;;;;1999.90;999.90;;;20.40;99.90;;;;;;4973006;28;20195;-72
2022/06/16 08:21:43;;;;;;;1999.90;999.90;;;20.50;99.90;;;;;;4973290;28;20414;-72
2022/06/16 08:24:09;;;;;;;1999.90;999.90;;;20.60;99.90;;;;;;4978520;28;20192;-74
2022/06/16 08:26:36;;;;;;;1999.90;999.90;;;20.70;99.90;;;;;;4980412;28;20245;-75
2022/06/16 08:29:04;;;;;;;1999.90;999.90;;;20.70;99.90;;;;;;4975342;28;20276;-73
2022/06/16 08:31:30;;;;;;;1999.90;999.90;;;20.60;99.90;;;;;;4987863;28;20424;-74
2022/06/16 08:33:55;;;;;;;1999.90;999.90;;;20.60;99.90;;;;;;4987549;28;20405;-75
2022/06/16 08:36:22;;;;;;;1999.90;999.90;;;20.90;99.90;;;;;;4985017;28;20175;-74
2022/06/16 08:38:48;;;;;;;1999.90;999.90;;;21.00;99.90;;;;;;4979078;28;20660;-74
2022/06/16 08:41:22;;;;;;;1999.90;999.90;;;20.90;99.90;;;;;;4974473;28;20419;-74
2022/06/16 08:43:57;;;;;;;1999.90;999.90;;;20.90;99.90;;;;;;4974247;28;20162;-75
2022/06/16 08:46:27;;;;;;;1999.90;999.90;;;20.90;99.90;;;;;;4972529;28;20405;-69
2022/06/16 08:49:07;;;;;;;1999.90;999.90;;;20.90;99.90;;;;;;4972974;28;20426;-73
2022/06/16 08:51:48;;;;;;;1999.90;999.90;;;20.90;99.90;;;;;;4980644;28;20414;-73
2022/06/16 08:54:39;;;;;;;1999.90;999.90;;;20.80;99.90;;;;;;4973031;28;20405;-73
2022/06/16 08:57:28;;;;;;;1999.90;999.90;;;20.80;99.90;;;;;;4972554;28;20401;-72
2022/06/16 09:00:03;;;;;;;1999.90;999.90;;;20.90;99.90;;;;;;4972091;28;20495;-73
2022/06/16 09:02:44;;;;;;;1999.90;999.90;;;21.00;99.90;;;;;;4972404;28;20883;-73
2022/06/16 09:05:49;;;;;;;1999.90;999.90;;;21.10;99.90;;;;;;4972443;28;20462;-73
2022/06/16 09:08:37;;;;;;;1999.90;999.90;;;21.20;99.90;;;;;;4979322;28;20409;-73
2022/06/16 09:11:24;;;;;;;1999.90;999.90;;;21.20;99.90;;;;;;4964469;28;20867;-73
2022/06/16 09:13:54;;;;;;;1999.90;999.90;;;21.20;99.90;;;;;;4972837;28;20535;-73
2022/06/16 09:16:34;;;;;;;1999.90;999.90;;;21.40;99.90;;;;;;4972275;28;20435;-72
2022/06/16 09:19:37;;;;;;;1999.90;999.90;;;21.50;99.90;;;;;;4972703;28;20423;-73
2022/06/16 09:22:25;;;;;;;1999.90;999.90;;;21.60;99.90;;;;;;4972637;28;20891;-73
2022/06/16 09:25:21;;;;;;;1999.90;999.90;;;21.70;99.90;;;;;;4971187;28;20485;-73
2022/06/16 09:28:08;;;;;;;1999.90;999.90;;;21.90;99.70;;;;;;4972372;28;20399;-73
2022/06/16 09:30:39;;;;;;;1999.90;999.90;;;22.10;99.90;;;;;;4972685;28;20449;-73
2022/06/16 09:33:33;;;;;;;1999.90;999.90;;;22.30;95.90;;;;;;4972527;28;20412;-73
2022/06/16 09:36:03;;;;;;;1999.90;999.90;;;22.60;91.10;;;;;;4943441;28;20426;-73
2022/06/16 09:38:39;;;;;;;1999.90;999.90;;;22.60;79.10;;;;;;4952929;28;20482;-73
2022/06/16 09:44:33;;;;;;;1999.90;999.90;;;22.50;81.70;;;;;;4968153;28;20488;-73
2022/06/16 09:47:05;;;;;;;1999.90;999.90;;;22.60;73.80;;;;;;4972239;28;20393;-73
2022/06/16 09:49:43;;;;;;;1999.90;999.90;;;22.80;81.20;;;;;;4972474;28;20464;-73
2022/06/16 09:52:22;;;;;;;1999.90;999.90;;;22.90;70.60;;;;;;4972521;28;20488;-73
2022/06/16 09:54:56;;;;;;;1999.90;999.90;;;22.90;72.00;;;;;;4972540;28;20467;-73
2022/06/16 09:57:38;;;;;;;1999.90;999.90;;;22.80;63.70;;;;;;4971940;28;20393;-73
2022/06/16 10:00:09;;;;;;;1999.90;999.90;;;22.70;67.80;;;;;;4972470;28;20415;-73
2022/06/16 10:03:02;;;;;;;1999.90;999.90;;;22.70;66.90;;;;;;4972349;28;20411;-73
2022/06/16 10:05:37;;;;;;;1999.90;999.90;;;22.70;59.90;;;;;;4961727;28;20962;-73
2022/06/16 10:08:26;;;;;;;1999.90;999.90;;;22.80;61.50;;;;;;4972031;28;20409;-73
2022/06/16 10:11:07;;;;;;;1999.90;999.90;;;22.90;58.20;;;;;;4972211;28;20411;-73
2022/06/16 10:13:58;;;;;;;1999.90;999.90;;;22.70;56.50;;;;;;4972207;28;20379;-73
2022/06/16 10:16:35;;;;;;;1999.90;999.90;;;22.80;56.00;;;;;;4971919;28;20492;-73
2022/06/16 10:19:01;;;;;;;1999.90;999.90;;;22.90;56.70;;;;;;4970786;28;20456;-73
2022/06/16 10:21:27;;;;;;;1999.90;999.90;;;23.10;57.30;;;;;;4973368;28;20744;-73
2022/06/16 10:23:58;;;;;;;1999.90;999.90;;;23.20;58.40;;;;;;4974293;28;20220;-73
2022/06/16 10:26:23;;;;;;;1999.90;999.90;;;23.30;59.20;;;;;;4975331;28;20701;-73
2022/06/16 10:28:58;;;;;;;1999.90;999.90;;;23.50;59.70;;;;;;4975418;28;20458;-73
2022/06/16 10:31:36;;;;;;;1999.90;999.90;;;23.50;61.20;;;;;;4975457;28;20533;-73
2022/06/16 10:34:04;;;;;;;1999.90;999.90;;;23.40;59.60;;;;;;4975529;28;20387;-73
2022/06/16 10:36:30;;;;;;;1999.90;999.90;;;23.30;58.20;;;;;;4975263;28;20536;-73
2022/06/16 10:39:15;;;;;;;1999.90;999.90;;;23.50;59.40;;;;;;4975159;28;20474;-73
2022/06/16 10:42:12;;;;;;;1999.90;999.90;;;23.80;56.90;;;;;;4975240;28;20403;-73
2022/06/16 10:44:39;;;;;;;1999.90;999.90;;;24.10;56.00;;;;;;4975142;28;20424;-73
2022/06/16 10:47:07;;;;;;;1999.90;999.90;;;24.40;54.50;;;;;;4974714;28;20463;-73
2022/06/16 10:49:39;;;;;;;1999.90;999.90;;;24.60;51.70;;;;;;4979004;28;20791;-73
2022/06/16 10:52:11;;;;;;;1999.90;999.90;;;24.70;52.30;;;;;;4975013;28;20386;-73
2022/06/16 10:55:02;;;;;;;1999.90;999.90;;;24.50;51.50;;;;;;4974805;28;20388;-73
2022/06/16 10:57:31;;;;;;;1999.90;999.90;;;24.40;54.20;;;;;;4973908;28;20431;-73
2022/06/16 11:00:02;;;;;;;1999.90;999.90;;;24.60;52.30;;;;;;4975039;28;20412;-73
2022/06/16 11:02:33;;;;;;;1999.90;999.90;;;24.80;53.30;;;;;;4974939;28;20376;-73
2022/06/16 11:05:09;;;;;;;1999.90;999.90;;;24.70;49.20;;;;;;4974857;28;20450;-73
2022/06/16 11:07:39;;;;;;;1999.90;999.90;;;24.80;51.00;;;;;;4974332;28;20396;-73
2022/06/16 11:10:11;;;;;;;1999.90;999.90;;;24.70;48.00;;;;;;4975196;28;20365;-75
2022/06/16 11:12:40;;;;;;;1999.90;999.90;;;24.70;47.10;;;;;;4974667;28;20390;-73
2022/06/16 11:15:29;;;;;;;1999.90;999.90;;;24.80;49.40;;;;;;4974588;28;20433;-73
2022/06/16 11:17:58;;;;;;;1999.90;999.90;;;24.60;47.90;;;;;;4974317;28;20408;-74
2022/06/16 11:20:38;;;;;;;1999.90;999.90;;;24.60;47.60;;;;;;4976400;28;20405;-74
2022/06/16 11:23:21;;;;;;;1999.90;999.90;;;24.50;51.80;;;;;;4976006;28;20394;-73
2022/06/16 11:25:53;;;;;;;1999.90;999.90;;;24.40;46.90;;;;;;4962173;28;20456;-75
2022/06/16 11:28:21;;;;;;;1999.90;999.90;;;24.40;47.20;;;;;;4957987;28;20477;-75
2022/06/16 11:30:47;;;;;;;1999.90;999.90;;;24.80;47.80;;;;;;4955915;29;20397;-74
2022/06/16 11:36:51;;;;;;;1999.90;999.90;;;25.60;46.10;;;;;;4955432;29;20195;-74
2022/06/16 11:39:51;;;;;;;1999.90;999.90;;;25.90;42.20;;;;;;4953729;28;20485;-72
2022/06/16 11:42:40;;;;;;;1999.90;999.90;;;26.20;39.20;;;;;;4973746;28;20779;-72
2022/06/16 11:45:05;;;;;;;1999.90;999.90;;;26.40;38.40;;;;;;4930622;28;20447;-74
2022/06/16 11:47:47;;;;;;;1999.90;999.90;;;26.60;36.90;;;;;;4986136;28;20436;-73
2022/06/16 11:50:31;;;;;;;1999.90;999.90;;;26.90;36.70;;;;;;4988311;28;20413;-73
2022/06/16 11:53:15;;;;;;;1999.90;999.90;;;27.00;35.90;;;;;;4985725;28;20456;-74
2022/06/16 11:56:16;;;;;;;1999.90;999.90;;;27.20;34.20;;;;;;4978935;28;20413;-75
2022/06/16 11:59:06;;;;;;;1999.90;999.90;;;27.40;33.20;;;;;;4866619;29;20492;-72
2022/06/16 12:01:46;;;;;;;1999.90;999.90;;;27.30;31.40;;;;;;4989016;28;20420;-72
2022/06/16 12:04:30;;;;;;;1999.90;999.90;;;27.20;28.90;;;;;;4993160;28;20432;-72
2022/06/16 12:07:07;;;;;;;1999.90;999.90;;;27.00;31.50;;;;;;4990571;28;20404;-72
2022/06/16 12:09:42;;;;;;;1999.90;999.90;;;27.40;31.40;;;;;;4970382;28;20868;-72
2022/06/16 12:12:38;;;;;;;1999.90;999.90;;;28.10;29.90;;;;;;4973850;28;20434;-72
2022/06/16 12:15:37;;;;;;;1999.90;999.90;;;28.70;27.90;;;;;;4973701;28;20456;-72
2022/06/16 12:18:15;;;;;;;1999.90;999.90;;;28.90;29.30;;;;;;4973190;28;20457;-72
2022/06/16 12:21:06;;;;;;;1999.90;999.90;;;29.00;27.60;;;;;;4973529;28;20424;-72
2022/06/16 12:23:41;;;;;;;1999.90;999.90;;;29.70;26.20;;;;;;4973178;28;20409;-72
2022/06/16 12:26:21;;;;;;;1999.90;999.90;;;30.50;25.30;;;;;;4978518;28;20456;-72
2022/06/16 12:29:14;;;;;;;1999.90;999.90;;;31.30;21.60;;;;;;4973269;28;20540;-72
2022/06/16 12:32:11;;;;;;;1999.90;999.90;;;31.90;19.60;;;;;;4973413;28;20824;-72
2022/06/16 12:35:14;;;;;;;1999.90;999.90;;;32.40;17.30;;;;;;4973147;28;20449;-72
2022/06/16 12:37:56;;;;;;;1999.90;999.90;;;32.10;15.80;;;;;;4972740;28;20456;-72
2022/06/16 12:40:30;;;;;;;1999.90;999.90;;;32.30;15.50;;;;;;4973458;28;20390;-72
2022/06/16 12:43:01;;;;;;;1999.90;999.90;;;32.70;16.20;;;;;;4973168;28;20409;-72
2022/06/16 12:45:33;;;;;;;1999.90;999.90;;;33.10;14.70;;;;;;4972429;28;21021;-72
2022/06/16 12:48:04;;;;;;;1999.90;999.90;;;33.90;14.20;;;;;;4972743;28;20803;-72
2022/06/16 12:50:40;;;;;;;1999.90;999.90;;;33.80;11.50;;;;;;4973281;28;20766;-72